PADQ

Kodiak Airport

Kodiak, Alaska, USA
PADQ 232003Z 2320/2418 08005KT P6SM FEW002 OVC020 FM232300 15008KT P6SM VCSH SCT015 BKN030 FM240100 16008KT P6SM SCT030 BKN045 FM240500 15010KT P6SM -RA BKN025 FM240800 14014G20KT 4SM -RA BR SCT008 BKN015
Issued Valid From Valid To
Apr-23 @ 20:03 UTC
(3 hours ago)
Apr-23 @ 20:00 UTC
(3 hours ago)
Apr-24 @ 18:00 UTC
(in 19 hours)
Apr-23 @ 20:00 to Apr-23 @ 23:00
PADQ 232003Z 2320/2418 08005KT P6SM FEW002 OVC020
Wind Visibility Clouds
80° at 5 knots Greater than 6 miles
  • Few at 200' AGL
  • Overcast at 2,000' AGL
From Apr-23 @ 23:00 to Apr-24 @ 01:00
FM232300 15008KT P6SM VCSH SCT015 BKN030
Wind Visibility Clouds
150° at 8 knots Greater than 6 miles
  • Scattered at 1,500' AGL
  • Broken at 3,000' AGL
From Apr-24 @ 01:00 to Apr-24 @ 05:00
FM240100 16008KT P6SM SCT030 BKN045
Wind Visibility Clouds
160° at 8 knots Greater than 6 miles
  • Scattered at 3,000' AGL
  • Broken at 4,500' AGL
From Apr-24 @ 05:00 to Apr-24 @ 08:00
FM240500 15010KT P6SM -RA BKN025
Wind Visibility Clouds Conditions
150° at 10 knots Greater than 6 miles
  • Broken at 2,500' AGL
  • Light Rain
From Apr-24 @ 08:00 to Apr-24 @ 18:00
FM240800 14014G20KT 4SM -RA BR SCT008 BKN015
Wind Visibility Clouds Conditions
140° at 14 knots
 Gusting to 20 knots
4 miles
  • Scattered at 800' AGL
  • Broken at 1,500' AGL
  • Light Rain
  • Mist
PADQ 232003Z 2320/2418 08005KT P6SM FEW002 OVC020 FM232300 15008KT P6SM VCSH SCT015 BKN030 FM240100 16008KT P6SM SCT030 BKN045 FM240500 15010KT P6SM -RA BKN025 FM240800 14014G20KT 4SM -RA BR SCT008 BKN015
Issued Apr-23 @ 20:03 UTC
(3 hours ago)
Valid From Apr-23 @ 20:00 UTC
(3 hours ago)
Valid To Apr-24 @ 18:00 UTC
(in 19 hours)
Apr-23 @ 20:00 - Apr-23 @ 23:00
Wind Visibility
80° at 5 knots Greater than 6 miles
Clouds
  • Few at 200' AGL
  • Overcast at 2,000' AGL
From Apr-23 @ 23:00 - Apr-24 @ 01:00
Wind Visibility
150° at 8 knots Greater than 6 miles
Clouds
  • Scattered at 1,500' AGL
  • Broken at 3,000' AGL
From Apr-24 @ 01:00 - Apr-24 @ 05:00
Wind Visibility
160° at 8 knots Greater than 6 miles
Clouds
  • Scattered at 3,000' AGL
  • Broken at 4,500' AGL
From Apr-24 @ 05:00 - Apr-24 @ 08:00
Wind Visibility
150° at 10 knots Greater than 6 miles
Clouds
  • Broken at 2,500' AGL
Conditions
  • Light Rain
From Apr-24 @ 08:00 - Apr-24 @ 18:00
Wind Visibility
140° at 14 knots
 Gusting to 20 knots
4 miles
Clouds
  • Scattered at 800' AGL
  • Broken at 1,500' AGL
Conditions
  • Light Rain
  • Mist